sensor_id;sensor_type;location;lat;lon;timestamp;P1;durP1;ratioP1;P2;durP2;ratioP2
48767;SDS011;34933;40.968;14.538;2023-07-16T00:02:37;10.68;;;5.38;;
48767;SDS011;34933;40.968;14.538;2023-07-16T00:05:21;12.73;;;6.10;;
48767;SDS011;34933;40.968;14.538;2023-07-16T00:08:06;9.68;;;5.60;;
48767;SDS011;34933;40.968;14.538;2023-07-16T00:10:51;14.43;;;7.03;;
48767;SDS011;34933;40.968;14.538;2023-07-16T00:13:35;11.60;;;6.82;;
48767;SDS011;34933;40.968;14.538;2023-07-16T00:16:20;11.48;;;7.00;;
48767;SDS011;34933;40.968;14.538;2023-07-16T00:19:05;10.32;;;6.53;;
48767;SDS011;34933;40.968;14.538;2023-07-16T00:21:49;12.02;;;6.75;;
48767;SDS011;34933;40.968;14.538;2023-07-16T00:24:34;10.70;;;6.32;;
48767;SDS011;34933;40.968;14.538;2023-07-16T00:27:18;7.10;;;6.18;;
48767;SDS011;34933;40.968;14.538;2023-07-16T00:30:04;7.63;;;6.10;;
48767;SDS011;34933;40.968;14.538;2023-07-16T00:32:49;13.30;;;6.25;;
48767;SDS011;34933;40.968;14.538;2023-07-16T00:35:33;11.05;;;6.50;;
48767;SDS011;34933;40.968;14.538;2023-07-16T00:38:18;11.38;;;6.43;;
48767;SDS011;34933;40.968;14.538;2023-07-16T00:41:03;19.92;;;8.05;;
48767;SDS011;34933;40.968;14.538;2023-07-16T00:43:48;12.63;;;7.38;;
48767;SDS011;34933;40.968;14.538;2023-07-16T00:46:32;13.88;;;7.68;;
48767;SDS011;34933;40.968;14.538;2023-07-16T00:49:17;11.55;;;7.10;;
48767;SDS011;34933;40.968;14.538;2023-07-16T00:52:02;19.65;;;7.47;;
48767;SDS011;34933;40.968;14.538;2023-07-16T00:54:47;18.90;;;8.35;;
48767;SDS011;34933;40.968;14.538;2023-07-16T00:57:33;15.82;;;7.65;;
48767;SDS011;34933;40.968;14.538;2023-07-16T01:00:18;12.40;;;6.88;;
48767;SDS011;34933;40.968;14.538;2023-07-16T01:03:03;8.63;;;7.35;;
48767;SDS011;34933;40.968;14.538;2023-07-16T01:05:54;11.40;;;7.88;;
48767;SDS011;34933;40.968;14.538;2023-07-16T01:09:06;10.50;;;7.25;;
48767;SDS011;34933;40.968;14.538;2023-07-16T01:11:54;9.63;;;7.32;;
48767;SDS011;34933;40.968;14.538;2023-07-16T01:14:41;9.90;;;6.47;;
48767;SDS011;34933;40.968;14.538;2023-07-16T01:17:26;10.73;;;7.22;;
48767;SDS011;34933;40.968;14.538;2023-07-16T01:20:10;14.10;;;7.53;;
48767;SDS011;34933;40.968;14.538;2023-07-16T01:26:38;14.70;;;8.00;;
48767;SDS011;34933;40.968;14.538;2023-07-16T01:29:41;13.60;;;8.10;;
48767;SDS011;34933;40.968;14.538;2023-07-16T01:32:31;14.35;;;8.77;;
48767;SDS011;34933;40.968;14.538;2023-07-16T01:35:18;12.63;;;8.80;;
48767;SDS011;34933;40.968;14.538;2023-07-16T01:38:04;12.02;;;8.25;;
48767;SDS011;34933;40.968;14.538;2023-07-16T01:40:48;13.73;;;8.20;;
48767;SDS011;34933;40.968;14.538;2023-07-16T01:43:33;12.70;;;9.32;;
48767;SDS011;34933;40.968;14.538;2023-07-16T01:46:17;13.02;;;7.80;;
48767;SDS011;34933;40.968;14.538;2023-07-16T01:49:03;18.00;;;8.77;;
48767;SDS011;34933;40.968;14.538;2023-07-16T01:51:47;12.27;;;8.95;;
48767;SDS011;34933;40.968;14.538;2023-07-16T01:54:32;14.02;;;9.20;;
48767;SDS011;34933;40.968;14.538;2023-07-16T01:57:16;13.63;;;8.43;;
48767;SDS011;34933;40.968;14.538;2023-07-16T02:00:01;9.70;;;8.25;;
48767;SDS011;34933;40.968;14.538;2023-07-16T02:02:48;12.25;;;8.75;;
48767;SDS011;34933;40.968;14.538;2023-07-16T02:05:33;11.98;;;8.05;;
48767;SDS011;34933;40.968;14.538;2023-07-16T02:08:18;9.32;;;7.45;;
48767;SDS011;34933;40.968;14.538;2023-07-16T02:11:02;11.25;;;7.70;;
48767;SDS011;34933;40.968;14.538;2023-07-16T02:13:47;12.90;;;7.75;;
48767;SDS011;34933;40.968;14.538;2023-07-16T02:16:31;10.20;;;6.90;;
48767;SDS011;34933;40.968;14.538;2023-07-16T02:19:16;11.20;;;6.25;;
48767;SDS011;34933;40.968;14.538;2023-07-16T02:22:00;11.00;;;6.60;;
48767;SDS011;34933;40.968;14.538;2023-07-16T02:24:46;12.63;;;6.13;;
48767;SDS011;34933;40.968;14.538;2023-07-16T02:27:31;9.75;;;5.72;;
48767;SDS011;34933;40.968;14.538;2023-07-16T02:30:16;8.90;;;5.20;;
48767;SDS011;34933;40.968;14.538;2023-07-16T02:33:00;6.93;;;5.50;;
48767;SDS011;34933;40.968;14.538;2023-07-16T02:35:49;7.32;;;5.43;;
48767;SDS011;34933;40.968;14.538;2023-07-16T02:38:35;11.57;;;5.97;;
48767;SDS011;34933;40.968;14.538;2023-07-16T02:41:19;9.90;;;5.78;;
48767;SDS011;34933;40.968;14.538;2023-07-16T02:44:04;8.18;;;6.22;;
48767;SDS011;34933;40.968;14.538;2023-07-16T02:46:49;10.18;;;6.05;;
48767;SDS011;34933;40.968;14.538;2023-07-16T02:49:34;14.40;;;6.93;;
48767;SDS011;34933;40.968;14.538;2023-07-16T02:52:19;15.25;;;5.85;;
48767;SDS011;34933;40.968;14.538;2023-07-16T02:55:04;13.52;;;6.03;;
48767;SDS011;34933;40.968;14.538;2023-07-16T02:57:49;13.13;;;5.80;;
48767;SDS011;34933;40.968;14.538;2023-07-16T03:00:33;12.50;;;6.45;;
48767;SDS011;34933;40.968;14.538;2023-07-16T03:03:18;12.70;;;7.05;;
48767;SDS011;34933;40.968;14.538;2023-07-16T03:06:03;14.43;;;6.00;;
48767;SDS011;34933;40.968;14.538;2023-07-16T03:08:47;13.35;;;6.40;;
48767;SDS011;34933;40.968;14.538;2023-07-16T03:11:34;13.60;;;5.78;;
48767;SDS011;34933;40.968;14.538;2023-07-16T03:14:19;9.10;;;6.18;;
48767;SDS011;34933;40.968;14.538;2023-07-16T03:17:03;9.40;;;5.85;;
48767;SDS011;34933;40.968;14.538;2023-07-16T03:19:50;9.30;;;6.07;;
48767;SDS011;34933;40.968;14.538;2023-07-16T03:22:35;12.30;;;6.00;;
48767;SDS011;34933;40.968;14.538;2023-07-16T03:25:19;8.20;;;6.78;;
48767;SDS011;34933;40.968;14.538;2023-07-16T03:28:04;11.63;;;6.50;;
48767;SDS011;34933;40.968;14.538;2023-07-16T03:30:50;10.75;;;6.88;;
48767;SDS011;34933;40.968;14.538;2023-07-16T03:33:34;10.48;;;6.72;;
48767;SDS011;34933;40.968;14.538;2023-07-16T03:36:19;9.77;;;6.45;;
48767;SDS011;34933;40.968;14.538;2023-07-16T03:39:04;9.38;;;6.40;;
48767;SDS011;34933;40.968;14.538;2023-07-16T03:41:48;9.85;;;6.00;;
48767;SDS011;34933;40.968;14.538;2023-07-16T03:44:33;12.48;;;7.90;;
48767;SDS011;34933;40.968;14.538;2023-07-16T03:47:19;9.45;;;6.47;;
48767;SDS011;34933;40.968;14.538;2023-07-16T03:50:03;10.32;;;7.25;;
48767;SDS011;34933;40.968;14.538;2023-07-16T03:52:48;18.88;;;7.35;;
48767;SDS011;34933;40.968;14.538;2023-07-16T03:55:33;11.75;;;7.07;;
48767;SDS011;34933;40.968;14.538;2023-07-16T03:58:17;13.00;;;6.88;;
48767;SDS011;34933;40.968;14.538;2023-07-16T04:01:02;10.88;;;6.55;;
48767;SDS011;34933;40.968;14.538;2023-07-16T04:03:47;13.90;;;7.03;;
48767;SDS011;34933;40.968;14.538;2023-07-16T04:06:31;10.57;;;6.57;;
48767;SDS011;34933;40.968;14.538;2023-07-16T04:09:16;15.30;;;6.75;;
48767;SDS011;34933;40.968;14.538;2023-07-16T04:12:00;13.25;;;6.13;;
48767;SDS011;34933;40.968;14.538;2023-07-16T04:14:45;13.32;;;6.97;;
48767;SDS011;34933;40.968;14.538;2023-07-16T04:17:30;11.35;;;6.95;;
48767;SDS011;34933;40.968;14.538;2023-07-16T04:20:14;11.82;;;7.47;;
48767;SDS011;34933;40.968;14.538;2023-07-16T04:22:59;13.52;;;6.97;;
48767;SDS011;34933;40.968;14.538;2023-07-16T04:25:44;11.18;;;6.72;;
48767;SDS011;34933;40.968;14.538;2023-07-16T04:28:28;11.68;;;7.03;;
48767;SDS011;34933;40.968;14.538;2023-07-16T04:31:13;10.27;;;7.18;;
48767;SDS011;34933;40.968;14.538;2023-07-16T04:33:58;10.77;;;6.72;;
48767;SDS011;34933;40.968;14.538;2023-07-16T04:36:42;13.02;;;6.95;;
48767;SDS011;34933;40.968;14.538;2023-07-16T04:39:28;15.02;;;6.75;;
48767;SDS011;34933;40.968;14.538;2023-07-16T04:42:12;10.77;;;6.88;;
48767;SDS011;34933;40.968;14.538;2023-07-16T04:44:57;7.60;;;6.47;;
48767;SDS011;34933;40.968;14.538;2023-07-16T04:47:42;9.60;;;6.93;;
48767;SDS011;34933;40.968;14.538;2023-07-16T04:50:26;16.15;;;7.00;;
48767;SDS011;34933;40.968;14.538;2023-07-16T04:53:11;15.80;;;6.90;;
48767;SDS011;34933;40.968;14.538;2023-07-16T04:55:56;13.77;;;6.75;;
48767;SDS011;34933;40.968;14.538;2023-07-16T04:58:40;11.75;;;6.95;;
48767;SDS011;34933;40.968;14.538;2023-07-16T05:01:25;12.52;;;6.53;;
48767;SDS011;34933;40.968;14.538;2023-07-16T05:04:10;10.13;;;6.50;;
48767;SDS011;34933;40.968;14.538;2023-07-16T05:06:55;9.13;;;5.75;;
48767;SDS011;34933;40.968;14.538;2023-07-16T05:09:40;11.63;;;6.90;;
48767;SDS011;34933;40.968;14.538;2023-07-16T05:12:25;13.57;;;6.13;;
48767;SDS011;34933;40.968;14.538;2023-07-16T05:15:10;13.25;;;6.78;;
48767;SDS011;34933;40.968;14.538;2023-07-16T05:17:55;11.27;;;6.25;;
48767;SDS011;34933;40.968;14.538;2023-07-16T05:20:41;17.20;;;6.55;;
48767;SDS011;34933;40.968;14.538;2023-07-16T05:23:26;7.50;;;5.82;;
48767;SDS011;34933;40.968;14.538;2023-07-16T05:26:10;39.53;;;10.00;;
48767;SDS011;34933;40.968;14.538;2023-07-16T05:28:55;21.85;;;7.55;;
48767;SDS011;34933;40.968;14.538;2023-07-16T05:31:39;24.27;;;9.35;;
48767;SDS011;34933;40.968;14.538;2023-07-16T05:34:26;15.07;;;8.05;;
48767;SDS011;34933;40.968;14.538;2023-07-16T05:37:11;13.98;;;7.47;;
48767;SDS011;34933;40.968;14.538;2023-07-16T05:39:55;16.17;;;7.18;;
48767;SDS011;34933;40.968;14.538;2023-07-16T05:42:40;21.17;;;8.65;;
48767;SDS011;34933;40.968;14.538;2023-07-16T05:45:24;18.45;;;8.48;;
48767;SDS011;34933;40.968;14.538;2023-07-16T05:48:09;16.10;;;8.63;;
48767;SDS011;34933;40.968;14.538;2023-07-16T05:50:54;19.77;;;7.93;;
48767;SDS011;34933;40.968;14.538;2023-07-16T05:53:38;24.80;;;10.07;;
48767;SDS011;34933;40.968;14.538;2023-07-16T05:56:23;14.23;;;8.45;;
48767;SDS011;34933;40.968;14.538;2023-07-16T05:59:07;14.35;;;7.43;;
48767;SDS011;34933;40.968;14.538;2023-07-16T06:01:52;14.73;;;8.40;;
48767;SDS011;34933;40.968;14.538;2023-07-16T06:04:37;17.23;;;8.18;;
48767;SDS011;34933;40.968;14.538;2023-07-16T06:07:21;22.50;;;8.27;;
48767;SDS011;34933;40.968;14.538;2023-07-16T06:10:06;17.05;;;8.02;;
48767;SDS011;34933;40.968;14.538;2023-07-16T06:12:52;16.00;;;7.10;;
48767;SDS011;34933;40.968;14.538;2023-07-16T06:15:36;24.38;;;8.40;;
48767;SDS011;34933;40.968;14.538;2023-07-16T06:18:21;14.82;;;8.18;;
48767;SDS011;34933;40.968;14.538;2023-07-16T06:21:06;25.27;;;11.75;;
48767;SDS011;34933;40.968;14.538;2023-07-16T06:23:50;21.35;;;12.00;;
48767;SDS011;34933;40.968;14.538;2023-07-16T06:26:35;19.55;;;13.00;;
48767;SDS011;34933;40.968;14.538;2023-07-16T06:29:20;22.73;;;12.70;;
48767;SDS011;34933;40.968;14.538;2023-07-16T06:32:05;25.95;;;12.52;;
48767;SDS011;34933;40.968;14.538;2023-07-16T06:34:50;19.83;;;12.90;;
48767;SDS011;34933;40.968;14.538;2023-07-16T06:37:35;24.30;;;13.52;;
48767;SDS011;34933;40.968;14.538;2023-07-16T06:40:19;26.58;;;14.10;;
48767;SDS011;34933;40.968;14.538;2023-07-16T06:43:04;16.25;;;11.10;;
48767;SDS011;34933;40.968;14.538;2023-07-16T06:45:49;16.77;;;10.85;;
48767;SDS011;34933;40.968;14.538;2023-07-16T06:48:34;17.17;;;10.07;;
48767;SDS011;34933;40.968;14.538;2023-07-16T06:51:19;22.30;;;10.10;;
48767;SDS011;34933;40.968;14.538;2023-07-16T06:54:03;20.75;;;9.13;;
48767;SDS011;34933;40.968;14.538;2023-07-16T06:56:48;14.25;;;8.38;;
48767;SDS011;34933;40.968;14.538;2023-07-16T06:59:33;18.50;;;8.25;;
48767;SDS011;34933;40.968;14.538;2023-07-16T07:02:18;21.25;;;9.07;;
48767;SDS011;34933;40.968;14.538;2023-07-16T07:05:03;21.58;;;9.23;;
48767;SDS011;34933;40.968;14.538;2023-07-16T07:07:48;28.83;;;9.15;;
48767;SDS011;34933;40.968;14.538;2023-07-16T07:10:33;27.52;;;12.70;;
48767;SDS011;34933;40.968;14.538;2023-07-16T07:13:19;28.70;;;13.55;;
48767;SDS011;34933;40.968;14.538;2023-07-16T07:16:03;19.65;;;11.80;;
48767;SDS011;34933;40.968;14.538;2023-07-16T07:18:48;53.63;;;14.13;;
48767;SDS011;34933;40.968;14.538;2023-07-16T07:21:33;34.80;;;18.98;;
48767;SDS011;34933;40.968;14.538;2023-07-16T07:24:17;27.30;;;15.00;;
48767;SDS011;34933;40.968;14.538;2023-07-16T07:27:02;24.88;;;12.77;;
48767;SDS011;34933;40.968;14.538;2023-07-16T07:29:47;22.95;;;10.55;;
48767;SDS011;34933;40.968;14.538;2023-07-16T07:32:36;27.88;;;13.90;;
48767;SDS011;34933;40.968;14.538;2023-07-16T07:35:22;33.35;;;14.73;;
48767;SDS011;34933;40.968;14.538;2023-07-16T07:38:07;24.85;;;13.98;;
48767;SDS011;34933;40.968;14.538;2023-07-16T07:40:51;28.38;;;11.35;;
48767;SDS011;34933;40.968;14.538;2023-07-16T07:43:36;21.02;;;10.48;;
48767;SDS011;34933;40.968;14.538;2023-07-16T07:46:21;22.02;;;11.38;;
48767;SDS011;34933;40.968;14.538;2023-07-16T07:49:05;23.45;;;11.25;;
48767;SDS011;34933;40.968;14.538;2023-07-16T07:51:50;25.83;;;10.85;;
48767;SDS011;34933;40.968;14.538;2023-07-16T07:54:34;19.40;;;10.00;;
48767;SDS011;34933;40.968;14.538;2023-07-16T07:57:19;20.02;;;9.27;;
48767;SDS011;34933;40.968;14.538;2023-07-16T08:00:04;14.43;;;8.98;;
48767;SDS011;34933;40.968;14.538;2023-07-16T08:02:56;27.63;;;10.43;;
48767;SDS011;34933;40.968;14.538;2023-07-16T08:05:40;23.70;;;10.93;;
48767;SDS011;34933;40.968;14.538;2023-07-16T08:08:25;13.95;;;8.65;;
48767;SDS011;34933;40.968;14.538;2023-07-16T08:11:09;17.25;;;9.77;;
48767;SDS011;34933;40.968;14.538;2023-07-16T08:13:54;17.13;;;8.15;;
48767;SDS011;34933;40.968;14.538;2023-07-16T08:16:39;17.98;;;8.88;;
48767;SDS011;34933;40.968;14.538;2023-07-16T08:19:23;14.20;;;8.20;;
48767;SDS011;34933;40.968;14.538;2023-07-16T08:22:08;21.83;;;7.82;;
48767;SDS011;34933;40.968;14.538;2023-07-16T08:24:53;18.45;;;8.25;;
48767;SDS011;34933;40.968;14.538;2023-07-16T08:27:37;13.85;;;8.30;;
48767;SDS011;34933;40.968;14.538;2023-07-16T08:30:22;15.38;;;7.40;;
48767;SDS011;34933;40.968;14.538;2023-07-16T08:33:07;21.75;;;8.18;;
48767;SDS011;34933;40.968;14.538;2023-07-16T08:35:51;20.35;;;8.23;;
48767;SDS011;34933;40.968;14.538;2023-07-16T08:38:36;17.05;;;7.95;;
48767;SDS011;34933;40.968;14.538;2023-07-16T08:41:20;12.85;;;7.82;;
48767;SDS011;34933;40.968;14.538;2023-07-16T08:44:05;15.30;;;8.90;;
48767;SDS011;34933;40.968;14.538;2023-07-16T08:46:51;17.02;;;7.95;;
48767;SDS011;34933;40.968;14.538;2023-07-16T08:49:36;15.25;;;7.75;;
48767;SDS011;34933;40.968;14.538;2023-07-16T08:52:23;16.25;;;7.97;;
48767;SDS011;34933;40.968;14.538;2023-07-16T08:55:10;13.70;;;8.05;;
48767;SDS011;34933;40.968;14.538;2023-07-16T08:57:54;15.50;;;7.60;;
48767;SDS011;34933;40.968;14.538;2023-07-16T09:00:40;17.20;;;7.90;;
48767;SDS011;34933;40.968;14.538;2023-07-16T09:03:28;24.10;;;7.57;;
48767;SDS011;34933;40.968;14.538;2023-07-16T09:06:13;14.98;;;7.78;;
48767;SDS011;34933;40.968;14.538;2023-07-16T09:08:58;19.63;;;8.30;;
48767;SDS011;34933;40.968;14.538;2023-07-16T09:11:46;20.00;;;8.05;;
48767;SDS011;34933;40.968;14.538;2023-07-16T09:14:31;24.67;;;8.40;;
48767;SDS011;34933;40.968;14.538;2023-07-16T09:17:19;14.77;;;6.93;;
48767;SDS011;34933;40.968;14.538;2023-07-16T09:20:10;12.85;;;7.07;;
48767;SDS011;34933;40.968;14.538;2023-07-16T09:22:54;16.70;;;6.50;;
48767;SDS011;34933;40.968;14.538;2023-07-16T09:25:39;11.32;;;6.20;;
48767;SDS011;34933;40.968;14.538;2023-07-16T09:28:25;14.05;;;6.60;;
48767;SDS011;34933;40.968;14.538;2023-07-16T09:31:09;20.45;;;7.80;;
48767;SDS011;34933;40.968;14.538;2023-07-16T09:33:56;17.85;;;7.95;;
48767;SDS011;34933;40.968;14.538;2023-07-16T09:36:42;15.48;;;7.03;;
48767;SDS011;34933;40.968;14.538;2023-07-16T09:39:27;14.13;;;7.03;;
48767;SDS011;34933;40.968;14.538;2023-07-16T09:42:12;15.98;;;6.75;;
48767;SDS011;34933;40.968;14.538;2023-07-16T09:44:59;13.43;;;6.38;;
48767;SDS011;34933;40.968;14.538;2023-07-16T09:47:44;16.65;;;7.70;;
48767;SDS011;34933;40.968;14.538;2023-07-16T09:50:30;14.23;;;6.03;;
48767;SDS011;34933;40.968;14.538;2023-07-16T09:53:18;11.90;;;6.00;;
48767;SDS011;34933;40.968;14.538;2023-07-16T09:56:05;11.70;;;5.60;;
48767;SDS011;34933;40.968;14.538;2023-07-16T09:58:50;12.70;;;6.32;;
48767;SDS011;34933;40.968;14.538;2023-07-16T10:01:36;15.85;;;6.40;;
48767;SDS011;34933;40.968;14.538;2023-07-16T10:04:24;14.63;;;5.85;;
48767;SDS011;34933;40.968;14.538;2023-07-16T10:07:21;13.55;;;6.50;;
48767;SDS011;34933;40.968;14.538;2023-07-16T10:10:08;10.55;;;5.70;;
48767;SDS011;34933;40.968;14.538;2023-07-16T10:12:58;18.40;;;7.38;;
48767;SDS011;34933;40.968;14.538;2023-07-16T10:15:58;19.70;;;7.65;;
48767;SDS011;34933;40.968;14.538;2023-07-16T10:18:49;15.30;;;5.97;;
48767;SDS011;34933;40.968;14.538;2023-07-16T10:21:37;14.70;;;6.63;;
48767;SDS011;34933;40.968;14.538;2023-07-16T10:24:22;13.90;;;6.35;;
48767;SDS011;34933;40.968;14.538;2023-07-16T10:27:13;10.75;;;5.80;;
48767;SDS011;34933;40.968;14.538;2023-07-16T10:30:00;18.60;;;6.75;;
48767;SDS011;34933;40.968;14.538;2023-07-16T10:32:50;11.73;;;6.07;;
48767;SDS011;34933;40.968;14.538;2023-07-16T10:35:35;14.63;;;6.15;;
48767;SDS011;34933;40.968;14.538;2023-07-16T10:38:24;12.27;;;5.50;;
48767;SDS011;34933;40.968;14.538;2023-07-16T10:41:08;12.65;;;5.57;;
48767;SDS011;34933;40.968;14.538;2023-07-16T10:43:53;14.60;;;5.78;;
48767;SDS011;34933;40.968;14.538;2023-07-16T10:46:38;13.88;;;5.80;;
48767;SDS011;34933;40.968;14.538;2023-07-16T10:49:28;12.55;;;5.20;;
48767;SDS011;34933;40.968;14.538;2023-07-16T10:52:12;14.32;;;6.95;;
48767;SDS011;34933;40.968;14.538;2023-07-16T10:54:57;14.00;;;6.03;;
48767;SDS011;34933;40.968;14.538;2023-07-16T10:57:42;10.80;;;5.80;;
48767;SDS011;34933;40.968;14.538;2023-07-16T11:00:26;11.63;;;5.53;;
48767;SDS011;34933;40.968;14.538;2023-07-16T11:03:14;12.00;;;5.85;;
48767;SDS011;34933;40.968;14.538;2023-07-16T11:06:05;14.60;;;6.57;;
48767;SDS011;34933;40.968;14.538;2023-07-16T11:11:35;15.75;;;6.28;;
48767;SDS011;34933;40.968;14.538;2023-07-16T11:14:20;11.95;;;5.80;;
48767;SDS011;34933;40.968;14.538;2023-07-16T11:17:05;12.05;;;6.53;;
48767;SDS011;34933;40.968;14.538;2023-07-16T11:19:52;9.77;;;6.63;;
48767;SDS011;34933;40.968;14.538;2023-07-16T11:22:38;17.33;;;6.20;;
48767;SDS011;34933;40.968;14.538;2023-07-16T11:25:23;9.98;;;5.93;;
48767;SDS011;34933;40.968;14.538;2023-07-16T11:28:07;15.55;;;6.10;;
48767;SDS011;34933;40.968;14.538;2023-07-16T11:30:52;11.65;;;6.15;;
48767;SDS011;34933;40.968;14.538;2023-07-16T11:33:37;13.02;;;5.80;;
48767;SDS011;34933;40.968;14.538;2023-07-16T11:36:21;12.80;;;5.95;;
48767;SDS011;34933;40.968;14.538;2023-07-16T11:39:06;18.05;;;5.65;;
48767;SDS011;34933;40.968;14.538;2023-07-16T11:41:55;11.27;;;5.88;;
48767;SDS011;34933;40.968;14.538;2023-07-16T11:44:40;15.43;;;6.68;;
48767;SDS011;34933;40.968;14.538;2023-07-16T11:47:25;14.80;;;6.93;;
48767;SDS011;34933;40.968;14.538;2023-07-16T11:50:09;17.55;;;5.32;;
48767;SDS011;34933;40.968;14.538;2023-07-16T11:52:55;14.80;;;5.50;;
48767;SDS011;34933;40.968;14.538;2023-07-16T11:55:40;11.85;;;5.15;;
48767;SDS011;34933;40.968;14.538;2023-07-16T11:58:25;10.88;;;5.10;;
48767;SDS011;34933;40.968;14.538;2023-07-16T12:01:09;11.90;;;5.97;;
48767;SDS011;34933;40.968;14.538;2023-07-16T12:03:54;12.65;;;5.10;;
48767;SDS011;34933;40.968;14.538;2023-07-16T12:06:38;7.38;;;4.90;;
48767;SDS011;34933;40.968;14.538;2023-07-16T12:09:23;11.10;;;5.63;;
48767;SDS011;34933;40.968;14.538;2023-07-16T12:12:08;8.43;;;4.80;;
48767;SDS011;34933;40.968;14.538;2023-07-16T12:14:53;10.95;;;5.65;;
48767;SDS011;34933;40.968;14.538;2023-07-16T12:17:37;11.38;;;5.85;;
48767;SDS011;34933;40.968;14.538;2023-07-16T12:20:22;12.95;;;5.15;;
48767;SDS011;34933;40.968;14.538;2023-07-16T12:23:07;9.00;;;4.72;;
48767;SDS011;34933;40.968;14.538;2023-07-16T12:25:51;15.45;;;5.88;;
48767;SDS011;34933;40.968;14.538;2023-07-16T12:28:36;7.78;;;4.95;;
48767;SDS011;34933;40.968;14.538;2023-07-16T12:31:20;11.70;;;5.30;;
48767;SDS011;34933;40.968;14.538;2023-07-16T12:34:05;8.45;;;4.53;;
48767;SDS011;34933;40.968;14.538;2023-07-16T12:36:50;9.48;;;4.65;;
48767;SDS011;34933;40.968;14.538;2023-07-16T12:39:34;9.45;;;5.38;;
48767;SDS011;34933;40.968;14.538;2023-07-16T12:42:19;14.45;;;4.90;;
48767;SDS011;34933;40.968;14.538;2023-07-16T12:45:04;7.75;;;4.65;;
48767;SDS011;34933;40.968;14.538;2023-07-16T12:47:48;10.02;;;4.43;;
48767;SDS011;34933;40.968;14.538;2023-07-16T12:50:33;11.02;;;4.68;;
48767;SDS011;34933;40.968;14.538;2023-07-16T12:53:18;8.45;;;4.93;;
48767;SDS011;34933;40.968;14.538;2023-07-16T12:56:02;8.95;;;4.75;;
48767;SDS011;34933;40.968;14.538;2023-07-16T12:58:47;8.57;;;4.63;;
48767;SDS011;34933;40.968;14.538;2023-07-16T13:01:32;7.28;;;4.50;;
48767;SDS011;34933;40.968;14.538;2023-07-16T13:04:17;7.38;;;4.70;;
48767;SDS011;34933;40.968;14.538;2023-07-16T13:07:01;10.13;;;4.63;;
48767;SDS011;34933;40.968;14.538;2023-07-16T13:09:46;9.52;;;4.97;;
48767;SDS011;34933;40.968;14.538;2023-07-16T13:12:30;9.35;;;5.03;;
48767;SDS011;34933;40.968;14.538;2023-07-16T13:15:15;9.60;;;4.40;;
48767;SDS011;34933;40.968;14.538;2023-07-16T13:17:59;11.40;;;4.30;;
48767;SDS011;34933;40.968;14.538;2023-07-16T13:20:44;11.35;;;4.75;;
48767;SDS011;34933;40.968;14.538;2023-07-16T13:23:28;10.30;;;4.65;;
48767;SDS011;34933;40.968;14.538;2023-07-16T13:26:13;4.95;;;3.75;;
48767;SDS011;34933;40.968;14.538;2023-07-16T13:28:58;9.13;;;4.85;;
48767;SDS011;34933;40.968;14.538;2023-07-16T13:31:42;7.28;;;4.15;;
48767;SDS011;34933;40.968;14.538;2023-07-16T13:34:27;9.13;;;4.25;;
48767;SDS011;34933;40.968;14.538;2023-07-16T13:37:11;4.18;;;3.50;;
48767;SDS011;34933;40.968;14.538;2023-07-16T13:39:58;8.32;;;4.50;;
48767;SDS011;34933;40.968;14.538;2023-07-16T13:42:42;12.40;;;4.53;;
48767;SDS011;34933;40.968;14.538;2023-07-16T13:45:27;10.23;;;4.40;;
48767;SDS011;34933;40.968;14.538;2023-07-16T13:48:11;10.80;;;4.95;;
48767;SDS011;34933;40.968;14.538;2023-07-16T13:50:56;11.00;;;5.13;;
48767;SDS011;34933;40.968;14.538;2023-07-16T13:53:41;12.02;;;4.82;;
48767;SDS011;34933;40.968;14.538;2023-07-16T13:56:25;10.95;;;4.95;;
48767;SDS011;34933;40.968;14.538;2023-07-16T13:59:10;10.50;;;5.70;;
48767;SDS011;34933;40.968;14.538;2023-07-16T14:02:01;10.73;;;5.13;;
48767;SDS011;34933;40.968;14.538;2023-07-16T14:04:46;12.80;;;5.72;;
48767;SDS011;34933;40.968;14.538;2023-07-16T14:07:31;16.15;;;7.03;;
48767;SDS011;34933;40.968;14.538;2023-07-16T14:10:16;11.95;;;6.80;;
48767;SDS011;34933;40.968;14.538;2023-07-16T14:13:01;13.88;;;7.93;;
48767;SDS011;34933;40.968;14.538;2023-07-16T14:15:45;13.43;;;7.13;;
48767;SDS011;34933;40.968;14.538;2023-07-16T14:18:30;14.38;;;6.97;;
48767;SDS011;34933;40.968;14.538;2023-07-16T14:21:14;17.13;;;6.80;;
48767;SDS011;34933;40.968;14.538;2023-07-16T14:23:59;11.88;;;7.10;;
48767;SDS011;34933;40.968;14.538;2023-07-16T14:26:44;11.93;;;6.63;;
48767;SDS011;34933;40.968;14.538;2023-07-16T14:29:29;14.70;;;7.30;;
48767;SDS011;34933;40.968;14.538;2023-07-16T14:32:14;14.75;;;7.47;;
48767;SDS011;34933;40.968;14.538;2023-07-16T14:34:58;13.75;;;6.95;;
48767;SDS011;34933;40.968;14.538;2023-07-16T14:37:43;13.60;;;7.47;;
48767;SDS011;34933;40.968;14.538;2023-07-16T14:40:28;13.93;;;7.65;;
48767;SDS011;34933;40.968;14.538;2023-07-16T14:43:13;10.07;;;6.70;;
48767;SDS011;34933;40.968;14.538;2023-07-16T14:45:57;16.42;;;7.68;;
48767;SDS011;34933;40.968;14.538;2023-07-16T14:48:43;14.02;;;7.18;;
48767;SDS011;34933;40.968;14.538;2023-07-16T14:51:30;11.48;;;7.30;;
48767;SDS011;34933;40.968;14.538;2023-07-16T14:54:15;14.88;;;7.70;;
48767;SDS011;34933;40.968;14.538;2023-07-16T14:56:59;17.17;;;7.07;;
48767;SDS011;34933;40.968;14.538;2023-07-16T14:59:44;18.52;;;8.13;;
48767;SDS011;34933;40.968;14.538;2023-07-16T15:02:29;11.05;;;7.13;;
48767;SDS011;34933;40.968;14.538;2023-07-16T15:05:13;14.38;;;6.90;;
48767;SDS011;34933;40.968;14.538;2023-07-16T15:07:58;14.48;;;7.93;;
48767;SDS011;34933;40.968;14.538;2023-07-16T15:10:43;15.60;;;7.10;;
48767;SDS011;34933;40.968;14.538;2023-07-16T15:13:27;12.45;;;7.35;;
48767;SDS011;34933;40.968;14.538;2023-07-16T15:16:12;14.00;;;7.05;;
48767;SDS011;34933;40.968;14.538;2023-07-16T15:18:57;14.18;;;6.53;;
48767;SDS011;34933;40.968;14.538;2023-07-16T15:21:43;12.90;;;6.70;;
48767;SDS011;34933;40.968;14.538;2023-07-16T15:24:28;13.82;;;6.88;;
48767;SDS011;34933;40.968;14.538;2023-07-16T15:27:14;13.48;;;6.63;;
48767;SDS011;34933;40.968;14.538;2023-07-16T15:30:00;14.43;;;7.03;;
48767;SDS011;34933;40.968;14.538;2023-07-16T15:32:44;13.98;;;7.45;;
48767;SDS011;34933;40.968;14.538;2023-07-16T15:35:29;18.02;;;8.18;;
48767;SDS011;34933;40.968;14.538;2023-07-16T15:38:13;22.90;;;8.55;;
48767;SDS011;34933;40.968;14.538;2023-07-16T15:40:59;12.85;;;8.98;;
48767;SDS011;34933;40.968;14.538;2023-07-16T15:43:43;13.10;;;8.30;;
48767;SDS011;34933;40.968;14.538;2023-07-16T15:46:32;16.83;;;8.75;;
48767;SDS011;34933;40.968;14.538;2023-07-16T15:49:17;12.98;;;8.23;;
48767;SDS011;34933;40.968;14.538;2023-07-16T15:52:03;16.70;;;9.02;;
48767;SDS011;34933;40.968;14.538;2023-07-16T15:54:48;16.95;;;8.40;;
48767;SDS011;34933;40.968;14.538;2023-07-16T15:57:32;16.13;;;8.45;;
48767;SDS011;34933;40.968;14.538;2023-07-16T16:00:17;10.00;;;7.57;;
48767;SDS011;34933;40.968;14.538;2023-07-16T16:03:03;15.68;;;7.88;;
48767;SDS011;34933;40.968;14.538;2023-07-16T16:05:48;15.80;;;7.78;;
48767;SDS011;34933;40.968;14.538;2023-07-16T16:08:32;15.15;;;7.57;;
48767;SDS011;34933;40.968;14.538;2023-07-16T16:11:21;15.65;;;7.40;;
48767;SDS011;34933;40.968;14.538;2023-07-16T16:14:05;19.67;;;7.03;;